Portada
METAR-TAF:

METAR-TAF

Aeroports :

Aeroflex-Andover Airport

Andover, Nova Jersey, Estats Units d'Amèrica

latitud: 41-00-32N, longitud: 074-44-12W, altitud: 177 m

Observació

L'informe es va fer fa 37 minuts, a les 14:54 UTC
Vent 3 kt amb direcció variable
Temperatura 5°C
Humitat 87%
Pressió 1009 hPa

METAR: K12N 191454Z AUTO VRB03KT 05/03 A2979 RMK AO1 SLP095 T00500028 51014

Hora: 10:31 (15:31 UTC)


TAF: manca

Observacions i pronòstics meteorològics de més de 4000 aeroports (METAR i TAF).

Les estacions disponibles són els punts grocs i vermells al mapa.

Posi el ratolí al punt desitjat per veure el nom de l'estació.

Feu clic per veure les observacions i els pronòstics meteorològics.

Per canviar el mapa: feu clic els botons verds amb una creu de color negre per apropar; al botó verd amb un guió per allunyar la imatge; o en les fletxes verdes per a mapes adjacents.


METAR-TAF: